Time;durP1;ratioP1;P1;durP2;ratioP2;P2;SDS_P1;SDS_P2;PMS_P1;PMS_P2;Temp;Humidity;BMP_temperature;BMP_pressure;BME280_temperature;BME280_humidity;BME280_pressure;Samples;Min_cycle;Max_cycle;Signal;HPM_P1;HPM_P2
2022/04/02 00:02:19;;;;;;;33.53;20.35;;;;;;;2.06;100.00;98616.16;5569395;32;34086;-68
2022/04/02 00:05:25;;;;;;;33.47;19.27;;;;;;;2.00;100.00;98605.50;5569527;32;34755;-68
2022/04/02 00:08:27;;;;;;;30.60;18.83;;;;;;;1.97;100.00;98601.41;5569219;32;34142;-68
2022/04/02 00:11:31;;;;;;;30.77;20.05;;;;;;;2.01;100.00;98592.28;5569410;32;34603;-69
2022/04/02 00:14:33;;;;;;;32.22;20.33;;;;;;;1.94;100.00;98587.81;5569149;32;34193;-68
2022/04/02 00:17:36;;;;;;;31.50;18.95;;;;;;;1.86;100.00;98578.16;5569389;32;34727;-68
2022/04/02 00:20:39;;;;;;;29.23;19.75;;;;;;;1.86;100.00;98586.00;5569258;32;34123;-68
2022/04/02 00:23:46;;;;;;;28.38;18.42;;;;;;;1.80;100.00;98583.16;5569380;32;34186;-68
2022/04/02 00:26:48;;;;;;;28.98;19.35;;;;;;;1.77;100.00;98600.00;5569094;32;34706;-68
2022/04/02 00:29:51;;;;;;;31.90;18.98;;;;;;;1.74;100.00;98587.25;5569024;32;34680;-68
2022/04/02 00:32:54;;;;;;;27.62;18.87;;;;;;;1.63;100.00;98595.34;5569261;32;34520;-68
2022/04/02 00:35:57;;;;;;;31.50;19.60;;;;;;;1.58;100.00;98605.44;5569334;32;34663;-67
2022/04/02 00:38:59;;;;;;;29.73;19.12;;;;;;;1.62;100.00;98596.31;5569020;32;34549;-68
2022/04/02 00:42:03;;;;;;;27.10;18.48;;;;;;;1.58;100.00;98595.81;5568993;32;34658;-67
2022/04/02 00:45:06;;;;;;;30.12;19.50;;;;;;;1.63;100.00;98580.50;5568969;32;34042;-68
2022/04/02 00:48:09;;;;;;;27.42;17.73;;;;;;;1.60;100.00;98585.19;5568145;32;34033;-68
2022/04/02 00:51:15;;;;;;;27.67;17.73;;;;;;;1.48;100.00;98586.44;5569050;32;33903;-68
2022/04/02 00:54:20;;;;;;;28.62;18.48;;;;;;;1.51;100.00;98579.09;5568869;32;33922;-68
2022/04/02 00:57:24;;;;;;;29.15;18.55;;;;;;;1.53;100.00;98586.81;5568800;32;34665;-69
2022/04/02 01:00:27;;;;;;;29.50;18.27;;;;;;;1.41;100.00;98591.44;5555010;32;33859;-68
2022/04/02 01:03:30;;;;;;;27.15;17.60;;;;;;;1.42;100.00;98584.44;5569130;32;33949;-68
2022/04/02 01:06:35;;;;;;;28.92;18.17;;;;;;;1.56;100.00;98589.91;5569006;32;34698;-68
2022/04/02 01:09:38;;;;;;;29.60;17.67;;;;;;;1.38;100.00;98590.94;5568527;32;34778;-69
2022/04/02 01:12:46;;;;;;;29.87;18.42;;;;;;;1.28;100.00;98585.81;5568636;32;34268;-68
2022/04/02 01:15:52;;;;;;;29.87;18.45;;;;;;;1.33;100.00;98590.59;5568561;32;34032;-68
2022/04/02 01:18:54;;;;;;;31.92;19.77;;;;;;;1.25;100.00;98596.59;5555274;32;33895;-68
2022/04/02 01:21:59;;;;;;;27.17;18.25;;;;;;;1.17;100.00;98597.31;5569214;32;34081;-68
2022/04/02 01:25:05;;;;;;;29.33;18.98;;;;;;;1.24;100.00;98611.44;5568536;32;34151;-68
2022/04/02 01:28:08;;;;;;;30.50;18.70;;;;;;;1.14;100.00;98609.88;5555086;32;33995;-68
2022/04/02 01:31:11;;;;;;;29.58;19.17;;;;;;;1.17;100.00;98606.94;5555231;32;34309;-68
2022/04/02 01:34:19;;;;;;;31.95;20.00;;;;;;;1.10;100.00;98598.09;5568350;32;34623;-68
2022/04/02 01:37:22;;;;;;;30.33;20.10;;;;;;;1.07;100.00;98627.94;5568137;32;34378;-68
2022/04/02 01:40:25;;;;;;;29.00;20.73;;;;;;;1.09;100.00;98631.22;5568056;32;34079;-68
2022/04/02 01:43:29;;;;;;;32.92;20.42;;;;;;;1.09;100.00;98630.41;5568061;32;34752;-68
2022/04/02 01:46:32;;;;;;;30.25;18.75;;;;;;;1.05;100.00;98631.66;5568089;32;34603;-68
2022/04/02 01:49:35;;;;;;;30.33;19.45;;;;;;;1.11;100.00;98623.25;5568100;32;34055;-67
2022/04/02 01:52:38;;;;;;;32.00;19.77;;;;;;;1.14;100.00;98626.38;5568397;32;34057;-68
2022/04/02 01:55:41;;;;;;;28.70;19.23;;;;;;;1.06;100.00;98623.69;5567849;32;34017;-67
2022/04/02 01:58:44;;;;;;;30.45;20.02;;;;;;;1.14;100.00;98634.19;5568415;32;34253;-67
2022/04/02 02:01:48;;;;;;;27.98;19.45;;;;;;;1.06;100.00;98641.97;5570400;32;33960;-68
2022/04/02 02:04:53;;;;;;;31.08;20.12;;;;;;;1.00;100.00;98639.97;5570597;32;34679;-67
2022/04/02 02:07:56;;;;;;;29.05;19.98;;;;;;;1.07;100.00;98635.75;5570664;32;34104;-68
2022/04/02 02:11:00;;;;;;;29.52;19.37;;;;;;;1.03;100.00;98641.44;5570364;32;34540;-68
2022/04/02 02:14:06;;;;;;;30.25;19.62;;;;;;;0.96;100.00;98632.56;5570727;32;32634;-68
2022/04/02 02:17:09;;;;;;;31.42;20.17;;;;;;;0.98;100.00;98654.13;5570715;32;35380;-68
2022/04/02 02:20:15;;;;;;;31.48;19.67;;;;;;;1.01;100.00;98648.62;5570313;32;34594;-68
2022/04/02 02:23:18;;;;;;;29.83;18.37;;;;;;;0.91;100.00;98646.06;5570420;32;33991;-68
2022/04/02 02:26:21;;;;;;;30.17;18.67;;;;;;;0.97;100.00;98653.28;5570256;32;34748;-68
2022/04/02 02:29:23;;;;;;;29.55;20.40;;;;;;;0.97;100.00;98655.09;5565964;32;144138;-68
2022/04/02 02:32:27;;;;;;;30.40;19.60;;;;;;;0.90;100.00;98647.03;5556506;32;33998;-68
2022/04/02 02:38:52;;;;;;;30.42;19.92;;;;;;;0.95;100.00;98650.03;5570297;32;34581;-68
2022/04/02 02:41:55;;;;;;;30.90;18.70;;;;;;;0.95;100.00;98642.19;5569781;32;35021;-68
2022/04/02 02:44:59;;;;;;;31.87;20.15;;;;;;;0.94;100.00;98635.31;5570075;32;34440;-68
2022/04/02 02:48:04;;;;;;;27.02;17.83;;;;;;;0.91;100.00;98640.03;5543580;32;32998;-68
2022/04/02 02:51:11;;;;;;;28.40;19.50;;;;;;;0.86;100.00;98628.25;5570497;32;33950;-68
2022/04/02 02:54:14;;;;;;;28.50;19.52;;;;;;;0.91;100.00;98626.97;5570184;32;34087;-68
2022/04/02 02:57:17;;;;;;;30.08;19.05;;;;;;;0.88;100.00;98634.13;5570220;32;34714;-68
2022/04/02 03:00:20;;;;;;;28.65;19.45;;;;;;;0.89;100.00;98640.16;5569935;32;34345;-68
2022/04/02 03:03:24;;;;;;;33.85;22.10;;;;;;;0.85;100.00;98638.84;5569875;32;34532;-68
2022/04/02 03:06:27;;;;;;;31.85;21.08;;;;;;;0.91;100.00;98632.19;5570186;32;34201;-68
2022/04/02 03:09:30;;;;;;;31.23;20.60;;;;;;;0.98;100.00;98635.84;5570105;32;33886;-68
2022/04/02 03:12:34;;;;;;;27.85;18.83;;;;;;;0.88;100.00;98641.97;5569310;32;34398;-68
2022/04/02 03:15:37;;;;;;;28.45;19.20;;;;;;;0.88;100.00;98643.75;5570030;32;34615;-67
2022/04/02 03:18:40;;;;;;;26.25;17.85;;;;;;;1.02;100.00;98645.00;5569953;32;33972;-68
2022/04/02 03:21:43;;;;;;;27.73;18.45;;;;;;;0.97;100.00;98660.34;5569998;32;34569;-68
2022/04/02 03:24:46;;;;;;;29.85;18.65;;;;;;;1.10;100.00;98660.78;5569855;32;34096;-68
2022/04/02 03:27:50;;;;;;;28.15;18.87;;;;;;;1.08;100.00;98660.91;5570313;32;34606;-68
2022/04/02 03:30:52;;;;;;;28.80;18.60;;;;;;;0.95;100.00;98664.88;5569596;32;35078;-68
2022/04/02 03:33:56;;;;;;;25.90;17.37;;;;;;;0.98;100.00;98668.00;5569855;32;34748;-67
2022/04/02 03:36:58;;;;;;;29.98;18.98;;;;;;;1.07;100.00;98664.47;5570030;32;34131;-67
2022/04/02 03:40:04;;;;;;;31.77;19.02;;;;;;;0.94;100.00;98668.44;5569454;32;34226;-68
2022/04/02 03:43:06;;;;;;;28.17;19.40;;;;;;;1.01;100.00;98667.72;5569473;32;34325;-68
2022/04/02 03:49:31;;;;;;;29.37;18.40;;;;;;;1.07;100.00;98674.94;5569404;31;34012;-68
2022/04/02 03:52:34;;;;;;;29.35;19.45;;;;;;;0.99;100.00;98679.25;5569567;32;33921;-68
2022/04/02 03:55:37;;;;;;;28.27;18.30;;;;;;;0.96;100.00;98690.84;5569658;32;33887;-68
2022/04/02 03:58:41;;;;;;;24.55;17.15;;;;;;;0.98;100.00;98685.44;5569339;32;34048;-68
2022/04/02 04:01:46;;;;;;;27.65;17.48;;;;;;;1.13;100.00;98683.97;5569730;32;34445;-68
2022/04/02 04:04:49;;;;;;;30.30;17.80;;;;;;;1.16;100.00;98686.28;5569445;32;34363;-68
2022/04/02 04:07:52;;;;;;;27.58;17.90;;;;;;;1.13;100.00;98687.41;5569538;32;33973;-68
2022/04/02 04:10:56;;;;;;;25.12;17.05;;;;;;;1.06;100.00;98688.97;5569267;32;33888;-68
2022/04/02 04:13:59;;;;;;;27.70;16.62;;;;;;;1.08;100.00;98692.25;5569408;32;35424;-68
2022/04/02 04:17:02;;;;;;;25.33;16.67;;;;;;;1.17;100.00;98695.75;5556028;32;34743;-68
2022/04/02 04:20:06;;;;;;;27.52;17.83;;;;;;;1.08;100.00;98696.66;5569411;32;33497;-68
2022/04/02 04:23:09;;;;;;;27.50;17.33;;;;;;;1.10;100.00;98694.72;5568056;32;34975;-68
2022/04/02 04:26:13;;;;;;;32.15;17.62;;;;;;;1.12;100.00;98700.59;5569234;32;34553;-68
2022/04/02 04:29:20;;;;;;;28.02;17.15;;;;;;;1.10;100.00;98700.75;5555929;32;34151;-68
2022/04/02 04:32:24;;;;;;;27.05;17.08;;;;;;;1.08;100.00;98704.47;5569160;32;33979;-68
2022/04/02 04:35:27;;;;;;;25.27;16.90;;;;;;;1.12;100.00;98706.63;5569259;32;34296;-69
2022/04/02 04:38:30;;;;;;;26.00;17.02;;;;;;;1.08;100.00;98700.06;5569453;32;33942;-69
2022/04/02 04:41:37;;;;;;;25.40;17.00;;;;;;;1.12;100.00;98700.59;5569152;32;34619;-68
2022/04/02 04:44:40;;;;;;;25.92;17.10;;;;;;;1.04;100.00;98696.13;5568780;32;34786;-68
2022/04/02 04:47:48;;;;;;;29.30;17.27;;;;;;;1.19;100.00;98704.25;5568900;32;34730;-68
2022/04/02 04:50:52;;;;;;;27.48;16.48;;;;;;;1.21;100.00;98704.94;5569154;32;35057;-68
2022/04/02 04:53:55;;;;;;;26.48;16.95;;;;;;;1.04;100.00;98713.59;5568913;32;34171;-68
2022/04/02 04:56:58;;;;;;;26.35;17.23;;;;;;;1.21;100.00;98718.00;5555292;32;35299;-68
2022/04/02 05:00:03;;;;;;;29.90;18.15;;;;;;;1.23;100.00;98718.66;5568561;32;34058;-68
2022/04/02 05:03:08;;;;;;;26.12;16.90;;;;;;;1.20;100.00;98708.53;5568796;32;33981;-68
2022/04/02 05:06:12;;;;;;;26.35;17.62;;;;;;;1.23;100.00;98713.44;5568739;32;34070;-68
2022/04/02 05:09:16;;;;;;;25.35;16.60;;;;;;;1.28;100.00;98719.03;5568428;32;33929;-68
2022/04/02 05:12:20;;;;;;;27.17;16.73;;;;;;;1.37;100.00;98727.75;5568931;32;34684;-68
2022/04/02 05:15:24;;;;;;;26.98;16.45;;;;;;;1.37;100.00;98723.38;5569037;32;34311;-68
2022/04/02 05:18:28;;;;;;;28.15;17.42;;;;;;;1.45;100.00;98723.44;5568918;32;33966;-69
2022/04/02 05:21:31;;;;;;;26.02;15.82;;;;;;;1.46;100.00;98727.69;5568724;32;34678;-68
2022/04/02 05:24:34;;;;;;;28.55;17.42;;;;;;;1.40;100.00;98712.63;5568425;32;34027;-68
2022/04/02 05:27:37;;;;;;;30.77;17.02;;;;;;;1.40;100.00;98735.31;5568722;32;34582;-67
2022/04/02 05:30:40;;;;;;;25.17;15.05;;;;;;;1.41;100.00;98740.38;5554601;32;33930;-68
2022/04/02 05:33:43;;;;;;;27.58;16.95;;;;;;;1.53;100.00;98746.19;5567412;32;35298;-68
2022/04/02 05:36:47;;;;;;;25.20;15.90;;;;;;;1.58;100.00;98741.34;5568696;32;33880;-67
2022/04/02 05:39:49;;;;;;;24.42;15.70;;;;;;;1.53;100.00;98746.19;5568464;32;34354;-68
2022/04/02 05:42:52;;;;;;;26.85;15.68;;;;;;;1.48;100.00;98745.84;5568058;32;34593;-68
2022/04/02 05:45:55;;;;;;;25.25;15.82;;;;;;;1.55;100.00;98757.34;5568086;32;34147;-68
2022/04/02 05:48:58;;;;;;;26.67;15.80;;;;;;;1.54;100.00;98758.31;5568120;32;34759;-68
2022/04/02 05:52:04;;;;;;;26.73;16.33;;;;;;;1.60;100.00;98755.06;5554761;32;35236;-68
2022/04/02 05:55:10;;;;;;;25.52;16.80;;;;;;;1.70;100.00;98767.09;5568044;32;34332;-68
2022/04/02 05:58:13;;;;;;;26.12;16.33;;;;;;;1.64;100.00;98761.66;5568053;32;34051;-68
2022/04/02 06:01:16;;;;;;;25.60;15.40;;;;;;;1.83;99.15;98764.09;5567691;32;34225;-68
2022/04/02 06:04:19;;;;;;;25.30;16.52;;;;;;;1.72;100.00;98759.09;5567892;32;34627;-68
2022/04/02 06:07:22;;;;;;;23.50;14.90;;;;;;;1.90;99.51;98757.28;5567714;32;33878;-68
2022/04/02 06:10:24;;;;;;;25.48;15.57;;;;;;;1.87;98.51;98760.22;5567660;32;34801;-68
2022/04/02 06:13:27;;;;;;;25.80;13.68;;;;;;;1.85;99.13;98759.53;5567481;32;34014;-68
2022/04/02 06:16:30;;;;;;;22.08;14.20;;;;;;;1.91;99.30;98763.34;5553972;32;34800;-68
2022/04/02 06:19:33;;;;;;;22.30;14.85;;;;;;;1.92;98.45;98759.75;5567898;32;34385;-69
2022/04/02 06:22:36;;;;;;;23.48;15.00;;;;;;;2.03;98.66;98757.69;5567804;32;34705;-68
2022/04/02 06:25:39;;;;;;;26.10;16.02;;;;;;;2.01;98.76;98756.22;5567560;32;34822;-68
2022/04/02 06:28:44;;;;;;;24.73;14.68;;;;;;;1.72;99.84;98756.50;5567284;32;34194;-68
2022/04/02 06:31:47;;;;;;;27.87;15.98;;;;;;;1.84;99.83;98757.88;5567311;32;33989;-68
2022/04/02 06:34:50;;;;;;;24.80;15.90;;;;;;;2.01;98.83;98766.69;5567362;32;35314;-68
2022/04/02 06:37:54;;;;;;;24.52;15.98;;;;;;;1.98;97.82;98761.75;5567653;32;34321;-69
2022/04/02 06:40:57;;;;;;;26.65;16.17;;;;;;;1.89;99.28;98773.13;5567291;32;34363;-68
2022/04/02 06:44:08;;;;;;;31.67;16.60;;;;;;;2.17;99.31;98774.66;5567011;32;34793;-68
2022/04/02 06:47:12;;;;;;;21.30;14.75;;;;;;;2.16;98.17;98793.91;5568975;32;34745;-68
2022/04/02 06:50:15;;;;;;;23.38;13.88;;;;;;;2.19;98.83;98794.44;5556443;32;34660;-68
2022/04/02 06:53:18;;;;;;;22.65;14.00;;;;;;;2.21;98.34;98789.06;5570020;32;34083;-68
2022/04/02 06:56:21;;;;;;;23.08;12.73;;;;;;;2.19;97.68;98786.59;5570001;32;34278;-68
2022/04/02 06:59:24;;;;;;;22.23;14.55;;;;;;;2.27;97.08;98792.84;5570036;32;34099;-68
2022/04/02 07:02:27;;;;;;;22.73;14.50;;;;;;;2.42;97.61;98796.56;5570000;32;34128;-68
2022/04/02 07:05:30;;;;;;;22.30;12.93;;;;;;;2.57;95.51;98798.41;5570248;32;34008;-68
2022/04/02 07:08:35;;;;;;;17.87;11.77;;;;;;;2.46;95.86;98795.25;5570016;32;34619;-69
2022/04/02 07:11:38;;;;;;;23.70;13.60;;;;;;;2.51;95.21;98799.06;5569781;32;34032;-68
2022/04/02 07:14:41;;;;;;;23.15;12.52;;;;;;;2.58;95.33;98794.81;5569832;32;34746;-68
2022/04/02 07:17:44;;;;;;;26.08;12.88;;;;;;;2.75;95.24;98800.97;5569278;32;35326;-68
2022/04/02 07:20:50;;;;;;;19.80;12.35;;;;;;;2.69;94.32;98801.59;5569714;32;35239;-68
2022/04/02 07:23:54;;;;;;;20.17;12.23;;;;;;;2.66;95.81;98808.94;5569474;32;35244;-69
2022/04/02 07:26:58;;;;;;;20.17;12.27;;;;;;;2.90;93.46;98817.75;5569656;32;34530;-68
2022/04/02 07:30:01;;;;;;;20.58;12.32;;;;;;;2.88;94.57;98816.25;5569349;31;34325;-68
2022/04/02 07:33:07;;;;;;;17.95;12.20;;;;;;;3.12;92.66;98813.72;5555499;32;32996;-68
2022/04/02 07:36:29;;;;;;;21.52;12.95;;;;;;;3.04;92.30;98825.00;5569745;32;34228;-68
2022/04/02 07:40:09;;;;;;;20.85;13.77;;;;;;;3.21;92.61;98817.19;5569609;32;33963;-68
2022/04/02 07:43:12;;;;;;;;;;;;;;;3.43;91.11;98814.81;5553712;32;34736;-67
2022/04/02 07:46:23;;;;;;;22.87;14.00;;;;;;;3.24;92.27;98828.19;5555869;32;34842;-68
2022/04/02 07:49:29;;;;;;;24.80;14.70;;;;;;;3.40;91.85;98824.78;5568898;32;34914;-69
2022/04/02 07:52:32;;;;;;;21.98;12.60;;;;;;;3.50;90.81;98828.06;5569466;32;34523;-69
2022/04/02 07:55:41;;;;;;;21.25;13.40;;;;;;;3.45;90.64;98835.59;5569455;32;34604;-68
2022/04/02 07:58:46;;;;;;;19.20;12.77;;;;;;;3.40;91.16;98835.25;5569189;32;34461;-68
2022/04/02 08:01:50;;;;;;;20.52;12.37;;;;;;;3.29;92.95;98843.44;5569858;32;34047;-67
2022/04/02 08:04:59;;;;;;;19.70;12.23;;;;;;;3.49;91.83;98839.53;5569608;32;34743;-68
2022/04/02 08:08:06;;;;;;;18.67;12.35;;;;;;;3.45;91.95;98844.28;5569536;32;34180;-68
2022/04/02 08:11:12;;;;;;;20.58;12.77;;;;;;;3.46;91.29;98845.94;5569529;32;33890;-68
2022/04/02 08:14:18;;;;;;;19.75;12.48;;;;;;;3.37;92.36;98846.91;5569488;32;34168;-68
2022/04/02 08:17:23;;;;;;;20.45;12.80;;;;;;;3.64;89.71;98840.56;5569341;32;33931;-68
2022/04/02 08:20:27;;;;;;;21.08;12.77;;;;;;;3.78;91.29;98842.53;5569225;32;35025;-68
2022/04/02 08:23:30;;;;;;;20.98;12.05;;;;;;;3.63;90.84;98840.75;5569675;32;34703;-68
2022/04/02 08:26:35;;;;;;;21.60;12.60;;;;;;;3.77;90.13;98848.78;5569465;32;34480;-68
2022/04/02 08:29:57;;;;;;;19.08;12.45;;;;;;;3.62;91.52;98847.78;5568483;32;34830;-68
2022/04/02 08:33:34;;;;;;;21.85;12.95;;;;;;;3.42;91.76;98847.25;5569162;32;34793;-68
2022/04/02 08:37:22;;;;;;;17.87;12.10;;;;;;;3.58;92.85;98856.97;5569047;32;34555;-68
2022/04/02 08:40:33;;;;;;;17.70;11.68;;;;;;;3.75;90.68;98870.91;5470836;32;34107;-68
2022/04/02 08:43:59;;;;;;;19.50;12.07;;;;;;;3.66;90.34;98866.63;5470929;32;34637;-69
2022/04/02 08:47:10;;;;;;;15.73;10.68;;;;;;;3.98;88.56;98863.22;5471433;32;33826;-68
2022/04/02 08:50:16;;;;;;;16.98;11.65;;;;;;;4.01;87.17;98876.03;5458584;32;34484;-68
2022/04/02 08:53:28;;;;;;;22.75;10.90;;;;;;;3.76;89.62;98876.00;5470737;32;35389;-69
2022/04/02 08:56:37;;;;;;;20.73;11.18;;;;;;;4.02;88.73;98878.47;5470250;32;34840;-68
2022/04/02 08:59:41;;;;;;;16.65;10.70;;;;;;;4.02;87.85;98873.22;5458613;32;34035;-68
2022/04/02 09:03:21;;;;;;;16.58;10.63;;;;;;;4.22;88.27;98881.59;5458413;32;33959;-68
2022/04/02 09:06:53;;;;;;;17.25;10.43;;;;;;;4.10;88.98;98886.38;5470739;32;34574;-68
2022/04/02 09:10:31;;;;;;;20.83;12.32;;;;;;;4.12;88.71;98892.25;5483450;32;34656;-68
2022/04/02 09:14:05;;;;;;;19.77;11.02;;;;;;;3.76;89.97;98886.50;5560942;32;34281;-68
2022/04/02 09:17:36;;;;;;;20.70;11.20;;;;;;;3.64;90.88;98887.75;5568802;32;34354;-68
2022/04/02 09:20:38;;;;;;;20.65;12.13;;;;;;;3.91;89.66;98895.37;5568722;32;34089;-67
2022/04/02 09:24:03;;;;;;;20.60;11.20;;;;;;;4.26;88.48;98899.47;5568443;32;34597;-69
2022/04/02 09:27:27;;;;;;;16.67;10.82;;;;;;;4.58;86.95;98897.84;5568923;32;34374;-69
2022/04/02 09:30:30;;;;;;;17.52;10.80;;;;;;;4.85;83.70;98913.22;5568382;32;34297;-68
2022/04/02 09:34:17;;;;;;;17.77;10.60;;;;;;;4.95;84.47;98903.34;5568623;32;34512;-68
2022/04/02 09:37:44;;;;;;;16.75;10.95;;;;;;;4.96;83.47;98914.69;5568357;32;34071;-68
2022/04/02 09:40:48;;;;;;;16.37;10.63;;;;;;;5.24;83.66;98919.37;5568460;32;34656;-69
2022/04/02 09:43:54;;;;;;;17.48;10.27;;;;;;;5.40;82.27;98915.88;5568297;32;34027;-68
2022/04/02 09:47:03;;;;;;;15.60;10.18;;;;;;;5.42;81.12;98921.78;5568463;32;33891;-66
2022/04/02 09:50:12;;;;;;;15.57;10.30;;;;;;;5.34;81.82;98927.06;5567922;32;33989;-69
2022/04/02 09:53:26;;;;;;;15.25;10.13;;;;;;;4.97;82.78;98930.31;5568077;32;34881;-68
2022/04/02 09:56:41;;;;;;;18.52;10.05;;;;;;;4.91;83.66;98927.50;5554409;32;34097;-67
2022/04/02 09:59:57;;;;;;;19.62;10.38;;;;;;;5.06;84.14;98931.91;5567853;32;34170;-68
2022/04/02 10:03:08;;;;;;;17.02;10.60;;;;;;;5.15;84.24;98927.47;5554166;32;34096;-68
2022/04/02 10:06:20;;;;;;;16.55;10.77;;;;;;;5.25;82.86;98928.91;5567940;32;35365;-68
2022/04/02 10:09:30;;;;;;;16.55;9.85;;;;;;;5.06;84.76;98937.19;5568096;32;33975;-68
2022/04/02 10:12:36;;;;;;;16.58;10.05;;;;;;;5.45;83.40;98937.22;5568104;32;34074;-66
2022/04/02 10:15:41;;;;;;;17.67;10.15;;;;;;;5.62;81.07;98933.53;5568053;32;34702;-68
2022/04/02 10:18:46;;;;;;;17.35;10.43;;;;;;;5.22;84.29;98926.63;5567340;32;34566;-68
2022/04/02 10:21:52;;;;;;;17.60;10.45;;;;;;;4.86;85.48;98935.91;5569795;32;34542;-68
2022/04/02 10:25:00;;;;;;;15.60;9.77;;;;;;;5.24;84.86;98936.97;5570200;32;35288;-67
2022/04/02 10:28:10;;;;;;;16.17;10.23;;;;;;;5.36;84.44;98938.25;5570156;32;34052;-67
2022/04/02 10:31:42;;;;;;;18.27;10.07;;;;;;;5.35;86.43;98941.03;5570038;31;34150;-68
2022/04/02 10:34:56;;;;;;;20.67;10.90;;;;;;;5.27;85.52;98939.28;5570226;32;34144;-68
2022/04/02 10:37:58;;;;;;;17.33;10.80;;;;;;;4.92;87.68;98943.13;5570035;32;33908;-68
2022/04/02 10:41:12;;;;;;;16.95;10.90;;;;;;;4.68;89.19;98936.09;5570043;32;33747;-68
2022/04/02 10:44:24;;;;;;;19.58;11.35;;;;;;;4.88;88.83;98944.44;5569865;32;33930;-68
2022/04/02 10:47:29;;;;;;;16.37;11.23;;;;;;;4.72;90.72;98939.19;5570091;32;34605;-67
2022/04/02 10:50:34;;;;;;;18.87;11.38;;;;;;;4.90;89.65;98944.25;5570015;32;34627;-68
2022/04/02 10:53:43;;;;;;;17.37;10.23;;;;;;;4.89;89.46;98947.91;5570006;32;33997;-68
2022/04/02 10:56:47;;;;;;;18.75;10.75;;;;;;;4.90;89.60;98950.34;5569977;32;33997;-68
2022/04/02 10:59:58;;;;;;;16.37;11.00;;;;;;;4.84;90.82;98951.03;5569953;32;34349;-67
2022/04/02 11:03:03;;;;;;;16.37;10.23;;;;;;;4.79;90.52;98951.50;5569502;32;34252;-67
2022/04/02 11:06:07;;;;;;;16.48;10.02;;;;;;;4.94;89.80;98959.53;5556516;32;34779;-68
2022/04/02 11:09:27;;;;;;;20.45;11.60;;;;;;;4.87;91.24;98963.00;5570090;32;34379;-67
2022/04/02 11:12:48;;;;;;;19.08;10.40;;;;;;;4.92;90.66;98972.03;5556407;32;34303;-67
2022/04/02 11:15:53;;;;;;;20.37;11.07;;;;;;;5.05;89.98;98974.13;5569953;32;34580;-68
2022/04/02 11:22:27;;;;;;;18.20;11.07;;;;;;;5.16;91.06;98971.16;5569532;32;34074;-68
2022/04/02 11:25:31;;;;;;;16.40;11.00;;;;;;;5.13;91.79;98974.94;5569626;32;34115;-68
2022/04/02 11:28:44;;;;;;;22.98;11.98;;;;;;;5.16;91.11;98977.25;5569878;32;34913;-68
2022/04/02 11:31:49;;;;;;;16.45;10.32;;;;;;;5.17;92.10;98978.91;5569261;32;34854;-67
2022/04/02 11:34:53;;;;;;;18.48;10.68;;;;;;;5.03;93.71;98979.59;5569631;32;34549;-68
2022/04/02 11:38:03;;;;;;;16.67;9.95;;;;;;;5.06;94.55;98976.59;5555714;32;34566;-69
2022/04/02 11:41:11;;;;;;;14.57;9.98;;;;;;;5.25;94.05;98976.25;5569678;32;34047;-68
2022/04/02 11:44:16;;;;;;;17.40;9.70;;;;;;;4.91;98.08;98980.06;5569339;32;34220;-67
2022/04/02 11:47:27;;;;;;;13.55;8.75;;;;;;;4.78;98.83;98983.22;5569193;32;34364;-68
2022/04/02 11:50:31;;;;;;;15.02;9.40;;;;;;;4.61;97.84;98986.81;5569149;32;34291;-68
2022/04/02 11:53:37;;;;;;;16.73;10.40;;;;;;;4.65;97.87;98985.50;5569443;32;33976;-68
2022/04/02 11:56:44;;;;;;;14.93;10.10;;;;;;;4.79;98.91;98995.37;5569510;32;34325;-68
2022/04/02 11:59:55;;;;;;;14.52;9.95;;;;;;;4.71;97.50;98990.09;5569431;32;33989;-68
2022/04/02 12:02:59;;;;;;;15.75;9.45;;;;;;;4.78;98.59;98984.03;5569445;32;35365;-68
2022/04/02 12:06:11;;;;;;;15.02;8.75;;;;;;;4.85;97.52;98986.81;5569251;32;34221;-68
2022/04/02 12:09:24;;;;;;;15.00;9.32;;;;;;;4.79;98.13;98987.47;5569319;32;34149;-67
2022/04/02 12:12:28;;;;;;;14.43;9.00;;;;;;;4.79;98.23;98988.28;5569392;32;33934;-68
2022/04/02 12:15:31;;;;;;;13.23;8.93;;;;;;;4.86;98.54;98982.38;5569180;32;34570;-68
2022/04/02 12:18:52;;;;;;;14.60;9.25;;;;;;;4.74;98.67;98984.53;5569127;32;34060;-68
2022/04/02 12:21:55;;;;;;;15.82;9.27;;;;;;;4.76;100.00;98970.22;5569277;32;34017;-68
2022/04/02 12:25:02;;;;;;;16.73;9.15;;;;;;;4.58;100.00;98977.47;5569463;32;33960;-67
2022/04/02 12:28:14;;;;;;;14.45;9.25;;;;;;;4.59;100.00;98979.09;5569000;32;34059;-67
2022/04/02 12:31:17;;;;;;;20.08;10.80;;;;;;;4.76;100.00;98977.28;5568875;32;34129;-67
2022/04/02 12:34:21;;;;;;;16.90;9.57;;;;;;;4.80;100.00;98975.97;5568841;32;34437;-68
2022/04/02 12:37:29;;;;;;;16.80;9.48;;;;;;;5.04;100.00;98978.56;5568619;32;34584;-68
2022/04/02 12:40:38;;;;;;;15.50;9.23;;;;;;;4.72;100.00;98983.84;5569111;32;34536;-68
2022/04/02 12:43:47;;;;;;;15.80;9.55;;;;;;;4.80;100.00;98991.72;5567925;32;33953;-68
2022/04/02 12:46:54;;;;;;;15.60;10.55;;;;;;;4.50;100.00;98992.41;5568815;32;33931;-68
2022/04/02 12:50:12;;;;;;;15.27;10.10;;;;;;;4.43;100.00;98988.78;5568677;32;34501;-69
2022/04/02 12:53:39;;;;;;;14.93;9.65;;;;;;;4.77;100.00;98995.53;5554930;32;34269;-69
2022/04/02 12:56:42;;;;;;;14.57;9.35;;;;;;;4.67;100.00;98986.16;5569110;32;34125;-69
2022/04/02 12:59:52;;;;;;;16.27;11.02;;;;;;;4.51;100.00;98988.75;5568748;32;34172;-69
2022/04/02 13:03:02;;;;;;;17.33;10.65;;;;;;;4.44;100.00;98986.00;5568423;32;34888;-69
2022/04/02 13:06:13;;;;;;;14.82;10.40;;;;;;;4.45;100.00;98986.81;5568710;32;34588;-69
2022/04/02 13:09:19;;;;;;;15.50;9.10;;;;;;;4.45;100.00;98992.88;5555010;32;34790;-69
2022/04/02 13:12:24;;;;;;;14.93;9.50;;;;;;;4.47;100.00;98996.16;5555415;32;34896;-68
2022/04/02 13:15:29;;;;;;;13.05;8.52;;;;;;;4.22;100.00;98999.72;5554806;32;34658;-69
2022/04/02 13:22:01;;;;;;;16.70;9.98;;;;;;;4.08;100.00;98997.72;5569005;32;34142;-69
2022/04/02 13:25:10;;;;;;;17.17;9.70;;;;;;;4.14;100.00;98999.72;5568737;32;34190;-69
2022/04/02 13:28:49;;;;;;;15.82;10.52;;;;;;;4.40;100.00;99000.44;5569062;32;33993;-68
2022/04/02 13:32:14;;;;;;;16.20;9.07;;;;;;;4.50;100.00;99000.28;5545242;32;34463;-68
2022/04/02 13:35:43;;;;;;;15.05;9.13;;;;;;;4.48;100.00;99004.84;5568717;32;34670;-69
2022/04/02 13:39:00;;;;;;;15.25;8.80;;;;;;;4.64;100.00;99007.50;5568885;32;35151;-69
2022/04/02 13:42:08;;;;;;;14.07;8.10;;;;;;;4.54;100.00;99005.03;5568712;32;34940;-69
2022/04/02 13:45:13;;;;;;;12.88;8.35;;;;;;;4.14;100.00;99005.78;5568497;32;34706;-68
2022/04/02 13:48:20;;;;;;;16.42;8.93;;;;;;;3.99;100.00;99007.38;5568567;31;34297;-69
2022/04/02 13:51:34;;;;;;;17.20;8.73;;;;;;;4.02;100.00;99012.28;5568507;32;33911;-68
2022/04/02 13:55:17;;;;;;;16.05;7.87;;;;;;;4.13;100.00;99011.19;5569219;32;35321;-68
2022/04/02 13:58:30;;;;;;;13.30;7.78;;;;;;;4.13;100.00;99012.00;5472689;32;33813;-67
2022/04/02 14:01:51;;;;;;;15.18;8.23;;;;;;;3.93;100.00;99021.94;5461115;32;34522;-69
2022/04/02 14:05:22;;;;;;;13.50;7.78;;;;;;;4.02;100.00;99019.38;5462111;32;34096;-68
2022/04/02 14:08:34;;;;;;;13.52;7.93;;;;;;;3.95;100.00;99024.44;5467193;32;34121;-69
2022/04/02 14:11:40;;;;;;;18.40;7.97;;;;;;;4.08;100.00;99023.97;5448503;32;34277;-68
2022/04/02 14:15:05;;;;;;;12.98;7.60;;;;;;;4.04;100.00;99025.25;5472638;32;34642;-68
2022/04/02 14:18:12;;;;;;;12.75;7.78;;;;;;;4.10;100.00;99025.47;5460091;32;33883;-69
2022/04/02 14:21:21;;;;;;;12.95;8.32;;;;;;;3.94;100.00;99031.47;5472713;32;33909;-68
2022/04/02 14:24:31;;;;;;;12.73;6.95;;;;;;;3.76;100.00;99036.00;5472366;32;34548;-68
2022/04/02 14:28:05;;;;;;;15.25;7.22;;;;;;;3.81;100.00;99031.09;5480495;32;35279;-69
2022/04/02 14:31:34;;;;;;;11.45;7.37;;;;;;;3.75;100.00;99036.12;5570418;32;34515;-68
2022/04/02 14:35:16;;;;;;;8.70;6.07;;;;;;;3.68;100.00;99045.63;5570459;32;34101;-68
2022/04/02 14:38:34;;;;;;;8.40;6.07;;;;;;;3.68;100.00;99043.81;5570382;32;33962;-68
2022/04/02 14:42:01;;;;;;;11.27;6.43;;;;;;;3.65;100.00;99040.69;5570361;32;33941;-67
2022/04/02 14:45:35;;;;;;;11.65;6.35;;;;;;;3.80;100.00;99042.56;5570347;32;34062;-68